Gilmer, Texas
Current Conditions -  °F | °C
As of 2:55 PM on Thursday 23 Oct 2014 (Local Time) from KOSA Reporting Station
Broken Clouds Broken Clouds  
Wind Chill: 73°   Ceiling: 11000
Heat Index: 73°   Visibility: 10mi
Dew Point: 50°   Wind: 0mph
Humidity: 44%   Direction: NA
Pressure: 30.14"   Gusts: NA
Location:  32.73°N, 94.95°W
Report Text: KOSA 231955Z AUTO 00000KT 10SM BKN110 23/10 A3014 RMK AO1 T02250098
Loading
Personal Weather Stations






























Interactive Weather Map
Tropical Storm Tracking
New forecast layout! Learn more

10-Day Weather Forecast

Advertisements
Track Severe Weather on mobile